PWSweather.com
Personal Weather Stations
Station Observations

ChardChardGB

Lat: 50.877408, Lon: -2.94964741

Elevation: 341

Station Type: WS3083

http://www.merriott-astro.co.uk/weather/index.htm

Latest ConditionsUpdated 11:10:07 AM GMT Wednesday, Jan 17, 2018
Currently Today's Max Today's Min Today's Average
Temperature 45.0°F7.2°C 45.0°F7.2°C 38.1°F3.4°C 40.5°F4.7°C
Dew Point 32.3°F0.2°C 32.5°F0.3°C 27.3°F-2.6°C 28.9°F-1.7°C
Winds 13.2 mph NNW21.2 kmh NNW 16.0 mph NW25.7 kmh NW - 10.1 mph 16.3 kmh
Wind Gusts 17.4 mph28.0 kmh 23.5 mph37.8 kmh - -
Humidity 61% 67% 60% 63%
Pressure 29.67 in1004.7 mb 29.67 in1004.7 mb 29.34 in993.6 mb -
Precipitation - 0.02 in0.5 mm - -
Hour Temp Dew Point Humidity Winds Wind Gusts Pressure Precip Precip Rate Daily Precip Total
11:10 AM 45.0°F7.2°C 32.3°F0.2°C 61% 13.2 mph NNW21.2 kmh NNW 17.4 mph28.0 kmh 29.67 in1004.7 mb 0.00 in0.0 mm 0.00 in0.0 mm 0.02 in0.5 mm
11:00 AM 44.8°F7.1°C 32.2°F0.1°C 61% 13.2 mph NW21.2 kmh NW 15.9 mph25.6 kmh 29.67 in1004.7 mb 0.00 in0.0 mm 0.00 in0.0 mm 0.02 in0.5 mm
10:50 AM 44.2°F6.8°C 32.5°F0.3°C 63% 13.7 mph NW22.0 kmh NW 19.7 mph31.7 kmh 29.66 in1004.4 mb 0.00 in0.0 mm 0.00 in0.0 mm 0.02 in0.5 mm
10:40 AM 43.7°F6.5°C 32.3°F0.2°C 64% 10.5 mph WNW16.9 kmh WNW 15.9 mph25.6 kmh 29.66 in1004.4 mb 0.00 in0.0 mm 0.00 in0.0 mm 0.02 in0.5 mm
10:30 AM 43.0°F6.1°C 32.0°F0.0°C 65% 8.9 mph NW14.3 kmh NW 14.5 mph23.3 kmh 29.66 in1004.4 mb 0.00 in0.0 mm 0.00 in0.0 mm 0.02 in0.5 mm
10:20 AM 42.6°F5.9°C 32.1°F0.1°C 66% 8.2 mph NW13.2 kmh NW 11.4 mph18.3 kmh 29.66 in1004.4 mb 0.00 in0.0 mm 0.00 in0.0 mm 0.02 in0.5 mm
10:10 AM 42.1°F5.6°C 31.2°F-0.4°C 65% 11.2 mph NNW18.0 kmh NNW 13.0 mph20.9 kmh 29.66 in1004.4 mb 0.00 in0.0 mm 0.00 in0.0 mm 0.02 in0.5 mm
10:00 AM 42.3°F5.7°C 31.3°F-0.4°C 65% 9.4 mph NW15.1 kmh NW 13.0 mph20.9 kmh 29.66 in1004.4 mb 0.00 in0.0 mm 0.00 in0.0 mm 0.02 in0.5 mm
09:50 AM 42.1°F5.6°C 30.8°F-0.7°C 64% 8.8 mph WNW14.2 kmh WNW 11.4 mph18.3 kmh 29.65 in1004.1 mb 0.00 in0.0 mm 0.00 in0.0 mm 0.02 in0.5 mm
09:40 AM 41.5°F5.3°C 30.7°F-0.7°C 65% 4.4 mph WSW7.1 kmh WSW 8.3 mph13.4 kmh 29.65 in1004.1 mb 0.00 in0.0 mm 0.00 in0.0 mm 0.02 in0.5 mm
09:30 AM 41.2°F5.1°C 30.3°F-0.9°C 65% 3.8 mph NW6.1 kmh NW 9.8 mph15.8 kmh 29.64 in1003.7 mb 0.00 in0.0 mm 0.00 in0.0 mm 0.02 in0.5 mm
09:20 AM 41.2°F5.1°C 30.3°F-0.9°C 65% 7.9 mph NW12.7 kmh NW 9.8 mph15.8 kmh 29.64 in1003.7 mb 0.00 in0.0 mm 0.00 in0.0 mm 0.02 in0.5 mm
09:10 AM 41.4°F5.2°C 30.1°F-1.1°C 64% 10.3 mph NW16.6 kmh NW 15.2 mph24.5 kmh 29.63 in1003.4 mb 0.01 in0.3 mm 0.00 in0.0 mm 0.02 in0.5 mm
09:00 AM 41.2°F5.1°C 30.3°F-0.9°C 65% 7.5 mph NW12.1 kmh NW 16.8 mph27.0 kmh 29.63 in1003.4 mb 0.01 in0.3 mm 0.00 in0.0 mm 0.02 in0.5 mm
08:50 AM 40.6°F4.8°C 29.4°F-1.4°C 64% 6.1 mph NW9.8 kmh NW 10.7 mph17.2 kmh 29.63 in1003.4 mb 0.01 in0.3 mm 0.00 in0.0 mm 0.02 in0.5 mm
08:40 AM 40.6°F4.8°C 29.0°F-1.7°C 63% 5.6 mph WNW9.0 kmh WNW 8.3 mph13.4 kmh 29.62 in1003.0 mb 0.01 in0.3 mm 0.00 in0.0 mm 0.02 in0.5 mm
08:30 AM 41.0°F5.0°C 28.6°F-1.9°C 61% 8.9 mph WNW14.3 kmh WNW 15.9 mph25.6 kmh 29.62 in1003.0 mb 0.01 in0.3 mm 0.00 in0.0 mm 0.02 in0.5 mm
08:20 AM 41.0°F5.0°C 29.0°F-1.7°C 62% 12.6 mph WSW20.3 kmh WSW 20.6 mph33.2 kmh 29.61 in1002.7 mb 0.01 in0.3 mm 0.06 in1.5 mm 0.02 in0.5 mm
08:10 AM 40.1°F4.5°C 28.9°F-1.7°C 64% 6.6 mph NW10.6 kmh NW 8.3 mph13.4 kmh 29.61 in1002.7 mb 0.00 in0.0 mm 0.00 in0.0 mm 0.01 in0.3 mm
08:00 AM 40.1°F4.5°C 28.9°F-1.7°C 64% 6.5 mph NW10.5 kmh NW 10.7 mph17.2 kmh 29.60 in1002.4 mb 0.00 in0.0 mm 0.00 in0.0 mm 0.01 in0.3 mm
07:50 AM 40.1°F4.5°C 28.9°F-1.7°C 64% 8.0 mph NW12.9 kmh NW 10.7 mph17.2 kmh 29.60 in1002.4 mb 0.00 in0.0 mm 0.00 in0.0 mm 0.01 in0.3 mm
07:40 AM 39.9°F4.4°C 28.7°F-1.8°C 64% 7.3 mph W11.7 kmh W 9.8 mph15.8 kmh 29.60 in1002.4 mb 0.00 in0.0 mm 0.00 in0.0 mm 0.01 in0.3 mm
07:30 AM 39.7°F4.3°C 28.6°F-1.9°C 64% 5.8 mph NNW9.3 kmh NNW 9.2 mph14.8 kmh 29.59 in1002.0 mb 0.00 in0.0 mm 0.00 in0.0 mm 0.01 in0.3 mm
07:20 AM 40.3°F4.6°C 29.1°F-1.6°C 64% 11.6 mph NW18.7 kmh NW 18.3 mph29.5 kmh 29.57 in1001.4 mb 0.00 in0.0 mm 0.00 in0.0 mm 0.01 in0.3 mm
07:10 AM 40.6°F4.8°C 29.0°F-1.7°C 63% 9.7 mph NW15.6 kmh NW 15.9 mph25.6 kmh 29.57 in1001.4 mb 0.00 in0.0 mm 0.00 in0.0 mm 0.01 in0.3 mm
07:00 AM 40.8°F4.9°C 28.4°F-2.0°C 61% 8.1 mph NW13.0 kmh NW 13.6 mph21.9 kmh 29.57 in1001.4 mb 0.00 in0.0 mm 0.00 in0.0 mm 0.01 in0.3 mm
06:50 AM 41.2°F5.1°C 28.4°F-2.0°C 60% 9.7 mph NW15.6 kmh NW 14.5 mph23.3 kmh 29.57 in1001.4 mb 0.00 in0.0 mm 0.00 in0.0 mm 0.01 in0.3 mm
06:40 AM 41.0°F5.0°C 28.2°F-2.1°C 60% 9.9 mph NW15.9 kmh NW 13.6 mph21.9 kmh 29.56 in1001.0 mb 0.00 in0.0 mm 0.00 in0.0 mm 0.01 in0.3 mm
06:30 AM 41.0°F5.0°C 28.2°F-2.1°C 60% 11.7 mph NW18.8 kmh NW 13.6 mph21.9 kmh 29.55 in1000.7 mb 0.00 in0.0 mm 0.00 in0.0 mm 0.01 in0.3 mm
06:20 AM 41.0°F5.0°C 28.2°F-2.1°C 60% 11.5 mph NW18.5 kmh NW 13.6 mph21.9 kmh 29.54 in1000.3 mb 0.00 in0.0 mm 0.00 in0.0 mm 0.01 in0.3 mm
06:10 AM 40.6°F4.8°C 28.3°F-2.1°C 61% 11.9 mph NNW19.2 kmh NNW 14.5 mph23.3 kmh 29.54 in1000.3 mb 0.00 in0.0 mm 0.00 in0.0 mm 0.01 in0.3 mm
06:00 AM 40.1°F4.5°C 28.5°F-1.9°C 63% 9.8 mph NW15.8 kmh NW 15.2 mph24.5 kmh 29.53 in1000.0 mb 0.00 in0.0 mm 0.00 in0.0 mm 0.01 in0.3 mm
05:50 AM 39.9°F4.4°C 28.7°F-1.8°C 64% 11.4 mph NW18.3 kmh NW 15.2 mph24.5 kmh 29.53 in1000.0 mb 0.00 in0.0 mm 0.00 in0.0 mm 0.01 in0.3 mm
05:40 AM 39.9°F4.4°C 28.7°F-1.8°C 64% 12.9 mph NW20.8 kmh NW 16.8 mph27.0 kmh 29.52 in999.7 mb 0.00 in0.0 mm 0.00 in0.0 mm 0.01 in0.3 mm
05:30 AM 40.3°F4.6°C 28.3°F-2.1°C 62% 10.0 mph NW16.1 kmh NW 14.5 mph23.3 kmh 29.52 in999.7 mb 0.00 in0.0 mm 0.00 in0.0 mm 0.01 in0.3 mm
05:20 AM 40.8°F4.9°C 28.0°F-2.2°C 60% 11.5 mph NW18.5 kmh NW 15.9 mph25.6 kmh 29.51 in999.3 mb 0.00 in0.0 mm 0.00 in0.0 mm 0.01 in0.3 mm
05:10 AM 40.6°F4.8°C 28.3°F-2.1°C 61% 10.8 mph WNW17.4 kmh WNW 14.5 mph23.3 kmh 29.50 in999.0 mb 0.00 in0.0 mm 0.00 in0.0 mm 0.01 in0.3 mm
05:00 AM 40.3°F4.6°C 27.9°F-2.3°C 61% 8.3 mph NW13.4 kmh NW 11.4 mph18.3 kmh 29.50 in999.0 mb 0.00 in0.0 mm 0.00 in0.0 mm 0.01 in0.3 mm
04:50 AM 40.5°F4.7°C 28.1°F-2.2°C 61% 12.0 mph NW19.3 kmh NW 17.4 mph28.0 kmh 29.50 in999.0 mb 0.00 in0.0 mm 0.00 in0.0 mm 0.01 in0.3 mm
04:40 AM 40.1°F4.5°C 27.7°F-2.4°C 61% 10.9 mph NW17.5 kmh NW 15.9 mph25.6 kmh 29.47 in998.0 mb 0.00 in0.0 mm 0.00 in0.0 mm 0.01 in0.3 mm
04:30 AM 39.7°F4.3°C 27.8°F-2.3°C 62% 10.0 mph NW16.1 kmh NW 15.9 mph25.6 kmh 29.49 in998.6 mb 0.01 in0.3 mm 0.00 in0.0 mm 0.01 in0.3 mm
04:20 AM 39.7°F4.3°C 27.4°F-2.6°C 61% 10.2 mph NW16.4 kmh NW 13.6 mph21.9 kmh 29.47 in998.0 mb 0.01 in0.3 mm 0.00 in0.0 mm 0.01 in0.3 mm
04:10 AM 39.9°F4.4°C 27.6°F-2.4°C 61% 9.7 mph NW15.6 kmh NW 12.1 mph19.5 kmh 29.46 in997.6 mb 0.01 in0.3 mm 0.00 in0.0 mm 0.01 in0.3 mm
04:00 AM 40.1°F4.5°C 27.3°F-2.6°C 60% 12.7 mph NW20.4 kmh NW 18.3 mph29.5 kmh 29.46 in997.6 mb 0.01 in0.3 mm 0.00 in0.0 mm 0.01 in0.3 mm
03:50 AM 40.3°F4.6°C 27.5°F-2.5°C 60% 15.2 mph NW24.5 kmh NW 19.7 mph31.7 kmh 29.45 in997.3 mb 0.01 in0.3 mm 0.00 in0.0 mm 0.01 in0.3 mm
03:40 AM 40.1°F4.5°C 27.3°F-2.6°C 60% 16.0 mph NW25.7 kmh NW 23.5 mph37.8 kmh 29.44 in997.0 mb 0.01 in0.3 mm 0.06 in1.5 mm 0.01 in0.3 mm
03:30 AM 39.7°F4.3°C 28.2°F-2.1°C 63% 10.7 mph NW17.2 kmh NW 13.0 mph20.9 kmh 29.43 in996.6 mb 0.00 in0.0 mm 0.00 in0.0 mm 0.00 in0.0 mm
03:20 AM 39.4°F4.1°C 28.2°F-2.1°C 64% 9.7 mph NW15.6 kmh NW 11.4 mph18.3 kmh 29.43 in996.6 mb 0.00 in0.0 mm 0.00 in0.0 mm 0.00 in0.0 mm
03:10 AM 39.4°F4.1°C 28.2°F-2.1°C 64% 11.0 mph NW17.7 kmh NW 14.5 mph23.3 kmh 29.42 in996.3 mb 0.00 in0.0 mm 0.00 in0.0 mm 0.00 in0.0 mm
03:00 AM 39.2°F4.0°C 28.1°F-2.2°C 64% 8.8 mph NW14.2 kmh NW 13.6 mph21.9 kmh 29.41 in995.9 mb 0.00 in0.0 mm 0.00 in0.0 mm 0.00 in0.0 mm
02:50 AM 39.6°F4.2°C 28.0°F-2.2°C 63% 10.5 mph NW16.9 kmh NW 13.6 mph21.9 kmh 29.41 in995.9 mb 0.00 in0.0 mm 0.00 in0.0 mm 0.00 in0.0 mm
02:40 AM 40.5°F4.7°C 28.1°F-2.2°C 61% 12.6 mph NW20.3 kmh NW 17.4 mph28.0 kmh 29.42 in996.3 mb 0.00 in0.0 mm 0.00 in0.0 mm 0.00 in0.0 mm
02:30 AM 40.3°F4.6°C 27.9°F-2.3°C 61% 13.2 mph NW21.2 kmh NW 22.1 mph35.6 kmh 29.40 in995.6 mb 0.00 in0.0 mm 0.00 in0.0 mm 0.00 in0.0 mm
02:20 AM 40.3°F4.6°C 28.3°F-2.1°C 62% 13.5 mph WNW21.7 kmh WNW 22.1 mph35.6 kmh 29.41 in995.9 mb 0.00 in0.0 mm 0.00 in0.0 mm 0.00 in0.0 mm
02:10 AM 39.6°F4.2°C 28.8°F-1.8°C 65% 7.7 mph NW12.4 kmh NW 10.7 mph17.2 kmh 29.40 in995.6 mb 0.00 in0.0 mm 0.00 in0.0 mm 0.00 in0.0 mm
02:00 AM 39.4°F4.1°C 28.6°F-1.9°C 65% 8.5 mph NW13.7 kmh NW 12.1 mph19.5 kmh 29.40 in995.6 mb 0.00 in0.0 mm 0.00 in0.0 mm 0.00 in0.0 mm
01:50 AM 39.4°F4.1°C 27.9°F-2.3°C 63% 11.2 mph NW18.0 kmh NW 16.8 mph27.0 kmh 29.38 in994.9 mb 0.00 in0.0 mm 0.00 in0.0 mm 0.00 in0.0 mm
01:40 AM 39.7°F4.3°C 27.8°F-2.3°C 62% 10.0 mph NW16.1 kmh NW 15.2 mph24.5 kmh 29.38 in994.9 mb 0.00 in0.0 mm 0.00 in0.0 mm 0.00 in0.0 mm
01:30 AM 39.7°F4.3°C 27.4°F-2.6°C 61% 12.4 mph NW20.0 kmh NW 17.4 mph28.0 kmh 29.37 in994.6 mb 0.00 in0.0 mm 0.00 in0.0 mm 0.00 in0.0 mm
01:20 AM 39.6°F4.2°C 27.6°F-2.4°C 62% 13.6 mph W21.9 kmh W 20.6 mph33.2 kmh 29.38 in994.9 mb 0.00 in0.0 mm 0.00 in0.0 mm 0.00 in0.0 mm
01:10 AM 38.8°F3.8°C 28.1°F-2.2°C 65% 9.6 mph NW15.4 kmh NW 13.6 mph21.9 kmh 29.36 in994.2 mb 0.00 in0.0 mm 0.00 in0.0 mm 0.00 in0.0 mm
01:00 AM 38.5°F3.6°C 28.1°F-2.2°C 66% 7.3 mph WNW11.7 kmh WNW 13.6 mph21.9 kmh 29.36 in994.2 mb 0.00 in0.0 mm 0.00 in0.0 mm 0.00 in0.0 mm
12:50 AM 38.3°F3.5°C 28.0°F-2.2°C 66% 7.9 mph SW12.7 kmh SW 13.0 mph20.9 kmh 29.36 in994.2 mb 0.00 in0.0 mm 0.00 in0.0 mm 0.00 in0.0 mm
12:40 AM 38.1°F3.4°C 28.1°F-2.2°C 67% 8.9 mph NW14.3 kmh NW 13.0 mph20.9 kmh 29.35 in993.9 mb 0.00 in0.0 mm 0.00 in0.0 mm 0.00 in0.0 mm
12:30 AM 38.1°F3.4°C 28.1°F-2.2°C 67% 11.2 mph NW18.0 kmh NW 18.3 mph29.5 kmh 29.35 in993.9 mb 0.00 in0.0 mm 0.00 in0.0 mm 0.00 in0.0 mm
12:20 AM 38.3°F3.5°C 28.0°F-2.2°C 66% 11.4 mph WNW18.3 kmh WNW 17.4 mph28.0 kmh 29.36 in994.2 mb 0.00 in0.0 mm 0.00 in0.0 mm 0.00 in0.0 mm
12:10 AM 38.5°F3.6°C 28.1°F-2.2°C 66% 12.7 mph NW20.4 kmh NW 17.4 mph28.0 kmh 29.34 in993.6 mb 0.00 in0.0 mm 0.00 in0.0 mm 0.00 in0.0 mm
12:00 AM 38.5°F3.6°C 28.1°F-2.2°C 66% 10.1 mph NNW16.3 kmh NNW 17.4 mph28.0 kmh 29.35 in993.9 mb 0.00 in0.0 mm 0.00 in0.0 mm 0.00 in0.0 mm